createdAt,value
2018-10-17T00:00:14.790Z,98826.77
2018-10-17T00:02:43.542Z,98821.91
2018-10-17T00:05:12.128Z,98822.05
2018-10-17T00:07:40.510Z,98823.84
2018-10-17T00:10:10.206Z,98824.23
2018-10-17T00:12:39.033Z,98826.66
2018-10-17T00:15:08.189Z,98822.31
2018-10-17T00:17:36.739Z,98830.91
2018-10-17T00:20:05.887Z,98825.43
2018-10-17T00:22:34.469Z,98827.84
2018-10-17T00:25:02.986Z,98822.31
2018-10-17T00:27:31.537Z,98825.05
2018-10-17T00:30:00.050Z,98825.29
2018-10-17T00:32:28.537Z,98826.21
2018-10-17T00:34:56.997Z,98825.34
2018-10-17T00:37:25.525Z,98825.18
2018-10-17T00:39:53.976Z,98823.08
2018-10-17T00:42:22.646Z,98822.56
2018-10-17T00:44:51.089Z,98822.78
2018-10-17T00:47:19.544Z,98819.20
2018-10-17T00:49:48.023Z,98822.47
2018-10-17T00:52:16.453Z,98825.20
2018-10-17T00:54:44.862Z,98824.54
2018-10-17T00:57:13.431Z,98826.85
2018-10-17T00:59:41.809Z,98827.83
2018-10-17T01:02:10.235Z,98823.40
2018-10-17T01:04:38.724Z,98825.80
2018-10-17T01:07:07.198Z,98826.65
2018-10-17T01:09:35.737Z,98827.72
2018-10-17T01:12:04.221Z,98827.68
2018-10-17T01:14:32.797Z,98827.77
2018-10-17T01:17:01.256Z,98823.86
2018-10-17T01:19:29.702Z,98815.79
2018-10-17T01:21:58.207Z,98814.94
2018-10-17T01:24:26.621Z,98820.27
2018-10-17T01:26:55.050Z,98818.63
2018-10-17T01:29:23.449Z,98815.92
2018-10-17T01:31:51.904Z,98813.94
2018-10-17T01:34:20.525Z,98818.16
2018-10-17T01:36:48.949Z,98809.84
2018-10-17T01:39:17.361Z,98812.98
2018-10-17T01:41:45.797Z,98813.21
2018-10-17T01:44:14.245Z,98816.72
2018-10-17T01:46:42.742Z,98809.31
2018-10-17T01:49:11.188Z,98807.48
2018-10-17T01:51:39.633Z,98806.06
2018-10-17T01:54:08.073Z,98800.83
2018-10-17T01:56:36.649Z,98803.76
2018-10-17T01:59:05.466Z,98794.39
2018-10-17T02:01:33.940Z,98799.01
2018-10-17T02:04:02.369Z,98790.72
2018-10-17T02:06:30.927Z,98794.62
2018-10-17T02:08:59.394Z,98796.75
2018-10-17T02:11:27.933Z,98792.00
2018-10-17T02:13:56.351Z,98787.20
2018-10-17T02:16:24.917Z,98785.91
2018-10-17T02:18:53.341Z,98781.64
2018-10-17T02:21:21.950Z,98782.83
2018-10-17T02:23:50.374Z,98781.98
2018-10-17T02:26:18.874Z,98777.72
2018-10-17T02:28:47.301Z,98774.66
2018-10-17T02:31:15.820Z,98781.33
2018-10-17T02:33:44.226Z,98771.64
2018-10-17T02:36:12.678Z,98770.89
2018-10-17T02:38:41.142Z,98764.80
2018-10-17T02:41:09.640Z,98762.27
2018-10-17T02:43:38.104Z,98754.95
2018-10-17T02:46:07.048Z,98751.34
2018-10-17T02:48:35.598Z,98755.73
2018-10-17T02:51:04.037Z,98762.25
2018-10-17T02:53:32.554Z,98755.62
2018-10-17T02:56:01.097Z,98757.31
2018-10-17T02:58:29.521Z,98749.94
2018-10-17T03:00:58.113Z,98755.08
2018-10-17T03:03:26.618Z,98747.58
2018-10-17T03:05:55.185Z,98748.64
2018-10-17T03:08:23.853Z,98744.11
2018-10-17T03:10:52.355Z,98739.93
2018-10-17T03:13:20.953Z,98741.29
2018-10-17T03:15:49.410Z,98741.77
2018-10-17T03:18:17.917Z,98742.44
2018-10-17T03:20:46.446Z,98743.37
2018-10-17T03:23:14.919Z,98743.37
2018-10-17T03:25:43.487Z,98743.53
2018-10-17T03:28:11.952Z,98743.05
2018-10-17T03:30:40.453Z,98745.04
2018-10-17T03:33:08.970Z,98742.31
2018-10-17T03:35:37.508Z,98745.28
2018-10-17T03:38:06.111Z,98747.79
2018-10-17T03:40:34.614Z,98745.52
2018-10-17T03:43:03.555Z,98750.20
2018-10-17T03:45:32.163Z,98750.02
2018-10-17T03:48:00.709Z,98757.36
2018-10-17T03:50:29.171Z,98753.58
2018-10-17T03:52:57.613Z,98755.84
2018-10-17T03:55:26.066Z,98751.48
2018-10-17T03:57:54.568Z,98752.13
2018-10-17T04:00:23.052Z,98743.57
2018-10-17T04:02:51.558Z,98744.05
2018-10-17T04:05:20.176Z,98744.54
2018-10-17T04:07:48.581Z,98751.28
2018-10-17T04:10:17.047Z,98741.97
2018-10-17T04:12:45.505Z,98748.80
2018-10-17T04:15:13.964Z,98753.16
2018-10-17T04:17:42.414Z,98753.64
2018-10-17T04:20:10.875Z,98747.86
2018-10-17T04:22:43.659Z,98756.59
2018-10-17T04:25:12.159Z,98752.81
2018-10-17T04:27:40.661Z,98752.13
2018-10-17T04:30:09.206Z,98761.53
2018-10-17T04:32:37.677Z,98757.99
2018-10-17T04:35:06.398Z,98755.84
2018-10-17T04:37:34.895Z,98761.48
2018-10-17T04:40:03.385Z,98768.22
2018-10-17T04:42:31.836Z,98758.72
2018-10-17T04:45:00.306Z,98760.53
2018-10-17T04:47:28.799Z,98760.45
2018-10-17T04:49:57.235Z,98761.57
2018-10-17T04:52:25.738Z,98756.94
2018-10-17T04:54:54.281Z,98757.78
2018-10-17T04:57:22.913Z,98758.36
2018-10-17T04:59:51.350Z,98758.55
2018-10-17T05:02:19.904Z,98761.77
2018-10-17T05:04:48.346Z,98764.72
2018-10-17T05:07:16.915Z,98761.20
2018-10-17T05:09:45.325Z,98761.77
2018-10-17T05:12:13.805Z,98766.33
2018-10-17T05:14:42.378Z,98758.16
2018-10-17T05:17:10.891Z,98754.00
2018-10-17T05:19:39.338Z,98759.13
2018-10-17T05:22:08.011Z,98754.58
2018-10-17T05:24:36.485Z,98755.34
2018-10-17T05:27:04.990Z,98753.63
2018-10-17T05:29:33.454Z,98758.94
2018-10-17T05:32:01.925Z,98761.15
2018-10-17T05:34:30.369Z,98765.14
2018-10-17T05:36:58.861Z,98762.65
2018-10-17T05:39:27.385Z,98765.79
2018-10-17T05:41:55.911Z,98763.70
2018-10-17T05:44:24.454Z,98765.79
2018-10-17T05:46:52.901Z,98770.17
2018-10-17T05:49:21.391Z,98769.41
2018-10-17T05:51:49.933Z,98762.77
2018-10-17T05:54:18.382Z,98762.65
2018-10-17T05:56:46.841Z,98773.56
2018-10-17T05:59:15.445Z,98776.98
2018-10-17T06:01:43.934Z,98769.49
2018-10-17T06:04:12.302Z,98778.02
2018-10-17T06:06:40.762Z,98776.00
2018-10-17T06:09:10.962Z,98775.92
2018-10-17T06:11:39.410Z,98771.91
2018-10-17T06:14:09.329Z,98779.00
2018-10-17T06:16:37.837Z,98774.98
2018-10-17T06:19:06.351Z,98776.66
2018-10-17T06:21:34.859Z,98771.71
2018-10-17T06:24:03.380Z,98773.92
2018-10-17T06:26:31.849Z,98773.20
2018-10-17T06:29:00.319Z,98784.23
2018-10-17T06:31:29.107Z,98786.52
2018-10-17T06:33:57.743Z,98788.44
2018-10-17T06:36:26.354Z,98789.12
2018-10-17T06:38:54.797Z,98788.03
2018-10-17T06:41:23.240Z,98791.14
2018-10-17T06:43:51.741Z,98794.59
2018-10-17T06:46:20.222Z,98795.00
2018-10-17T06:48:48.644Z,98796.41
2018-10-17T06:51:17.162Z,98795.25
2018-10-17T06:53:45.606Z,98789.54
2018-10-17T06:56:14.049Z,98793.45
2018-10-17T06:58:42.583Z,98793.02
2018-10-17T07:01:11.074Z,98790.77
2018-10-17T07:03:39.449Z,98786.53
2018-10-17T07:06:07.870Z,98781.22
2018-10-17T07:08:36.510Z,98783.84
2018-10-17T07:11:05.381Z,98787.76
2018-10-17T07:13:33.808Z,98790.47
2018-10-17T07:16:02.227Z,98795.72
2018-10-17T07:18:30.686Z,98787.48
2018-10-17T07:20:59.101Z,98788.23
2018-10-17T07:23:27.617Z,98787.89
2018-10-17T07:25:56.019Z,98791.45
2018-10-17T07:28:24.573Z,98797.80
2018-10-17T07:30:53.111Z,98791.48
2018-10-17T07:33:21.724Z,98797.08
2018-10-17T07:35:50.405Z,98796.83
2018-10-17T07:38:18.769Z,98799.09
2018-10-17T07:40:47.226Z,98798.84
2018-10-17T07:43:15.626Z,98801.80
2018-10-17T07:45:44.127Z,98802.78
2018-10-17T07:48:12.688Z,98805.59
2018-10-17T07:50:41.095Z,98808.00
2018-10-17T07:53:09.563Z,98807.03
2018-10-17T07:55:38.007Z,98803.48
2018-10-17T07:58:06.787Z,98799.47
2018-10-17T08:00:35.350Z,98800.52
2018-10-17T08:03:03.771Z,98799.52
2018-10-17T08:05:32.274Z,98809.48
2018-10-17T08:08:00.726Z,98809.55
2018-10-17T08:10:29.192Z,98804.04
2018-10-17T08:12:57.678Z,98802.70
2018-10-17T08:15:26.150Z,98803.64
2018-10-17T08:17:54.580Z,98805.55
2018-10-17T08:20:23.142Z,98809.23
2018-10-17T08:22:51.552Z,98808.35
2018-10-17T08:25:19.998Z,98805.47
2018-10-17T08:27:48.418Z,98805.66
2018-10-17T08:30:17.043Z,98805.27
2018-10-17T08:32:45.343Z,98805.84
2018-10-17T08:35:13.833Z,98806.12
2018-10-17T08:37:42.643Z,98804.16
2018-10-17T08:40:10.702Z,98809.14
2018-10-17T08:42:39.182Z,98800.72
2018-10-17T08:45:07.740Z,98801.62
2018-10-17T08:47:36.189Z,98807.09
2018-10-17T08:50:04.705Z,98800.03
2018-10-17T08:52:33.182Z,98800.27
2018-10-17T08:55:01.637Z,98804.33
2018-10-17T08:57:30.053Z,98799.17
2018-10-17T08:59:58.491Z,98801.54
2018-10-17T09:02:26.899Z,98801.83
2018-10-17T09:04:55.309Z,98803.54
2018-10-17T09:07:23.741Z,98806.84
2018-10-17T09:09:52.178Z,98812.10
2018-10-17T09:12:20.881Z,98812.44
2018-10-17T09:14:49.277Z,98805.55
2018-10-17T09:17:17.720Z,98806.38
2018-10-17T09:19:46.286Z,98807.87
2018-10-17T09:22:15.033Z,98806.20
2018-10-17T09:24:43.119Z,98805.23
2018-10-17T09:27:11.568Z,98807.03
2018-10-17T09:29:40.089Z,98804.17
2018-10-17T09:32:08.551Z,98805.45
2018-10-17T09:34:37.081Z,98805.89
2018-10-17T09:37:05.652Z,98799.77
2018-10-17T09:39:34.237Z,98798.39
2018-10-17T09:42:02.736Z,98799.77
2018-10-17T09:44:31.101Z,98796.88
2018-10-17T09:46:59.541Z,98784.80
2018-10-17T09:49:27.992Z,98786.09
2018-10-17T09:51:56.540Z,98785.19
2018-10-17T09:54:25.054Z,98784.22
2018-10-17T09:56:53.494Z,98783.04
2018-10-17T09:59:21.943Z,98781.82
2018-10-17T10:01:52.076Z,98776.42
2018-10-17T10:04:20.969Z,98777.54
2018-10-17T10:06:49.625Z,98769.39
2018-10-17T10:09:18.063Z,98766.26
2018-10-17T10:11:46.517Z,98767.23
2018-10-17T10:14:14.916Z,98767.91
2018-10-17T10:16:43.378Z,98766.25
2018-10-17T10:19:11.826Z,98767.91
2018-10-17T10:21:40.244Z,98763.55
2018-10-17T10:24:08.775Z,98756.89
2018-10-17T10:26:37.201Z,98753.41
2018-10-17T10:29:05.839Z,98742.63
2018-10-17T10:31:34.353Z,98744.18
2018-10-17T10:34:03.034Z,98746.55
2018-10-17T10:36:31.472Z,98738.53
2018-10-17T10:38:59.902Z,98737.16
2018-10-17T10:41:28.314Z,98735.48
2018-10-17T10:43:56.757Z,98731.97
2018-10-17T10:46:25.315Z,98726.50
2018-10-17T10:48:53.785Z,98717.02
2018-10-17T10:51:22.287Z,98720.16
2018-10-17T10:53:50.845Z,98712.47
2018-10-17T10:56:19.353Z,98714.59
2018-10-17T10:58:47.821Z,98713.63
2018-10-17T11:01:16.242Z,98701.00
2018-10-17T11:03:44.759Z,98695.69
2018-10-17T11:06:13.229Z,98692.30
2018-10-17T11:08:41.661Z,98689.75
2018-10-17T11:11:10.182Z,98690.94
2018-10-17T11:13:38.626Z,98684.28
2018-10-17T11:16:07.085Z,98689.09
2018-10-17T11:18:35.573Z,98683.91
2018-10-17T11:21:04.054Z,98681.25
2018-10-17T11:23:32.522Z,98674.28
2018-10-17T11:26:00.957Z,98670.75
2018-10-17T11:28:29.401Z,98674.66
2018-10-17T11:30:57.816Z,98666.06
2018-10-17T11:33:26.266Z,98664.17
2018-10-17T11:35:54.824Z,98661.36
2018-10-17T11:38:23.603Z,98659.15
2018-10-17T11:40:52.090Z,98656.66
2018-10-17T11:43:20.626Z,98649.36
2018-10-17T11:45:49.050Z,98652.73
2018-10-17T11:48:17.697Z,98646.72
2018-10-17T11:50:46.124Z,98643.89
2018-10-17T11:53:14.774Z,98631.64
2018-10-17T11:55:43.109Z,98630.16
2018-10-17T11:58:11.593Z,98633.70
2018-10-17T12:00:40.040Z,98637.52
2018-10-17T12:03:08.566Z,98628.53
2018-10-17T12:05:37.185Z,98629.98
2018-10-17T12:08:05.611Z,98619.28
2018-10-17T12:10:34.054Z,98619.68
2018-10-17T12:13:02.590Z,98618.70
2018-10-17T12:15:31.074Z,98616.22
2018-10-17T12:17:59.657Z,98611.88
2018-10-17T12:20:28.078Z,98605.82
2018-10-17T12:22:56.505Z,98604.32
2018-10-17T12:25:24.972Z,98599.20
2018-10-17T12:27:53.467Z,98593.58
2018-10-17T12:30:22.087Z,98595.53
2018-10-17T12:32:50.525Z,98581.73
2018-10-17T12:35:19.049Z,98583.21
2018-10-17T12:37:47.458Z,98586.15
2018-10-17T12:40:15.997Z,98581.88
2018-10-17T12:42:44.371Z,98579.89
2018-10-17T12:45:12.916Z,98587.02
2018-10-17T12:47:41.344Z,98578.36
2018-10-17T12:50:10.149Z,98576.88
2018-10-17T12:52:38.604Z,98572.80
2018-10-17T12:55:08.060Z,98579.27
2018-10-17T12:57:36.539Z,98569.30
2018-10-17T13:00:05.665Z,98577.52
2018-10-17T13:02:34.110Z,98573.76
2018-10-17T13:05:02.542Z,98575.92
2018-10-17T13:07:31.040Z,98575.00
2018-10-17T13:09:59.454Z,98574.31
2018-10-17T13:12:27.873Z,98574.26
2018-10-17T13:14:56.294Z,98577.25
2018-10-17T13:17:24.894Z,98570.66
2018-10-17T13:19:53.298Z,98562.48
2018-10-17T13:22:21.724Z,98559.45
2018-10-17T13:24:50.217Z,98563.84
2018-10-17T13:27:18.691Z,98559.57
2018-10-17T13:29:47.106Z,98563.09
2018-10-17T13:32:15.588Z,98552.63
2018-10-17T13:34:44.020Z,98557.30
2018-10-17T13:37:12.553Z,98551.98
2018-10-17T13:39:40.923Z,98547.73
2018-10-17T13:42:09.374Z,98544.17
2018-10-17T13:44:37.781Z,98543.55
2018-10-17T13:47:07.038Z,98542.50
2018-10-17T13:49:35.968Z,98545.30
2018-10-17T13:52:04.468Z,98542.02
2018-10-17T13:54:32.969Z,98542.89
2018-10-17T13:57:01.381Z,98547.41
2018-10-17T13:59:29.875Z,98548.06
2018-10-17T14:01:58.302Z,98541.55
2018-10-17T14:04:26.745Z,98541.34
2018-10-17T14:06:55.197Z,98534.93
2018-10-17T14:09:23.746Z,98537.67
2018-10-17T14:11:52.264Z,98534.78
2018-10-17T14:14:20.771Z,98532.59
2018-10-17T14:16:49.181Z,98521.72
2018-10-17T14:19:17.690Z,98521.70
2018-10-17T14:21:46.089Z,98523.73
2018-10-17T14:24:14.630Z,98519.48
2018-10-17T14:26:42.987Z,98517.98
2018-10-17T14:29:11.441Z,98515.56
2018-10-17T14:31:39.868Z,98518.94
2018-10-17T14:34:08.287Z,98515.53
2018-10-17T14:36:36.772Z,98519.83
2018-10-17T14:39:08.983Z,98519.39
2018-10-17T14:41:37.298Z,98521.42
2018-10-17T14:44:05.840Z,98515.11
2018-10-17T14:46:34.312Z,98516.81
2018-10-17T14:49:03.057Z,98515.18
2018-10-17T14:51:31.685Z,98512.84
2018-10-17T14:54:00.218Z,98511.30
2018-10-17T14:56:28.790Z,98515.81
2018-10-17T14:58:57.288Z,98517.39
2018-10-17T15:01:25.818Z,98522.33
2018-10-17T15:03:54.296Z,98510.53
2018-10-17T15:06:22.801Z,98516.31
2018-10-17T15:08:51.515Z,98517.94
2018-10-17T15:11:20.191Z,98517.99
2018-10-17T15:13:48.689Z,98516.39
2018-10-17T15:16:17.157Z,98511.76
2018-10-17T15:18:45.908Z,98507.82
2018-10-17T15:21:14.440Z,98511.77
2018-10-17T15:23:42.970Z,98503.03
2018-10-17T15:26:11.426Z,98504.31
2018-10-17T15:28:39.905Z,98503.22
2018-10-17T15:31:08.486Z,98500.79
2018-10-17T15:33:37.305Z,98495.80
2018-10-17T15:36:06.045Z,98495.89
2018-10-17T15:38:34.677Z,98498.88
2018-10-17T15:41:03.269Z,98493.86
2018-10-17T15:43:31.930Z,98497.23
2018-10-17T15:46:00.550Z,98492.48
2018-10-17T15:48:29.090Z,98489.08
2018-10-17T15:50:57.634Z,98484.49
2018-10-17T15:53:26.217Z,98486.20
2018-10-17T15:55:54.735Z,98486.14
2018-10-17T15:58:23.190Z,98489.96
2018-10-17T16:00:51.900Z,98484.86
2018-10-17T16:03:20.405Z,98489.07
2018-10-17T16:05:49.045Z,98488.98
2018-10-17T16:08:17.510Z,98485.22
2018-10-17T16:10:45.889Z,98495.09
2018-10-17T16:13:14.327Z,98489.88
2018-10-17T16:15:42.823Z,98487.38
2018-10-17T16:18:12.268Z,98490.06
2018-10-17T16:20:40.929Z,98487.69
2018-10-17T16:23:09.704Z,98497.08
2018-10-17T16:25:38.113Z,98498.70
2018-10-17T16:28:06.813Z,98497.90
2018-10-17T16:30:35.257Z,98497.50
2018-10-17T16:33:03.903Z,98509.67
2018-10-17T16:35:32.337Z,98506.98
2018-10-17T16:38:00.917Z,98508.66
2018-10-17T16:40:29.329Z,98507.98
2018-10-17T16:42:57.858Z,98505.69
2018-10-17T16:45:26.333Z,98513.71
2018-10-17T16:47:54.907Z,98515.65
2018-10-17T16:50:23.620Z,98516.85
2018-10-17T16:52:52.005Z,98516.38
2018-10-17T16:55:20.570Z,98519.66
2018-10-17T16:57:49.080Z,98522.92
2018-10-17T17:00:17.680Z,98519.06
2018-10-17T17:02:46.065Z,98525.70
2018-10-17T17:05:15.260Z,98525.58
2018-10-17T17:07:43.892Z,98534.67
2018-10-17T17:10:13.557Z,98533.86
2018-10-17T17:12:41.982Z,98530.81
2018-10-17T17:15:10.944Z,98540.97
2018-10-17T17:17:39.721Z,98542.85
2018-10-17T17:20:10.160Z,98542.50
2018-10-17T17:22:39.437Z,98545.52
2018-10-17T17:25:08.023Z,98541.45
2018-10-17T17:27:36.752Z,98550.69
2018-10-17T17:30:09.691Z,98549.98
2018-10-17T17:32:38.077Z,98564.64
2018-10-17T17:35:06.725Z,98565.12
2018-10-17T17:37:35.283Z,98573.88
2018-10-17T17:40:03.805Z,98572.50
2018-10-17T17:42:32.461Z,98569.98
2018-10-17T17:45:00.858Z,98586.36
2018-10-17T17:47:29.417Z,98588.99
2018-10-17T17:49:57.805Z,98590.30
2018-10-17T17:52:26.581Z,98586.34
2018-10-17T17:54:54.974Z,98594.53
2018-10-17T17:57:24.079Z,98597.69
2018-10-17T17:59:52.465Z,98601.03
2018-10-17T18:02:21.289Z,98600.80
2018-10-17T18:04:49.697Z,98600.58
2018-10-17T18:07:18.382Z,98598.48
2018-10-17T18:09:46.798Z,98594.90
2018-10-17T18:12:15.323Z,98599.36
2018-10-17T18:14:43.873Z,98598.01
2018-10-17T18:17:12.778Z,98598.45
2018-10-17T18:19:41.502Z,98596.03
2018-10-17T18:22:09.979Z,98598.32
2018-10-17T18:24:38.369Z,98602.62
2018-10-17T18:27:07.016Z,98597.64
2018-10-17T18:29:35.460Z,98603.45
2018-10-17T18:32:03.921Z,98599.65
2018-10-17T18:34:33.280Z,98597.02
2018-10-17T18:37:02.697Z,98596.92
2018-10-17T18:39:31.138Z,98595.45
2018-10-17T18:41:59.566Z,98601.52
2018-10-17T18:44:28.138Z,98595.20
2018-10-17T18:46:57.494Z,98593.80
2018-10-17T18:49:26.041Z,98599.45
2018-10-17T18:51:54.457Z,98598.34
2018-10-17T18:54:23.230Z,98605.64
2018-10-17T18:56:51.828Z,98602.08
2018-10-17T18:59:20.209Z,98601.30
2018-10-17T19:01:48.641Z,98610.61
2018-10-17T19:04:17.065Z,98604.92
2018-10-17T19:06:45.515Z,98611.16
2018-10-17T19:09:14.881Z,98614.77
2018-10-17T19:11:43.265Z,98623.77
2018-10-17T19:14:11.689Z,98620.73
2018-10-17T19:16:40.177Z,98612.97
2018-10-17T19:19:08.615Z,98626.04
2018-10-17T19:21:37.296Z,98624.91
2018-10-17T19:24:06.297Z,98625.92
2018-10-17T19:26:35.116Z,98627.34
2018-10-17T19:29:03.646Z,98633.98
2018-10-17T19:31:32.065Z,98633.05
2018-10-17T19:34:00.490Z,98646.94
2018-10-17T19:36:28.917Z,98641.36
2018-10-17T19:38:57.363Z,98644.37
2018-10-17T19:41:25.979Z,98649.83
2018-10-17T19:43:54.434Z,98644.28
2018-10-17T19:46:23.005Z,98650.91
2018-10-17T19:48:51.634Z,98656.56
2018-10-17T19:51:20.021Z,98654.66
2018-10-17T19:53:48.437Z,98655.41
2018-10-17T19:56:16.869Z,98651.39
2018-10-17T19:58:45.308Z,98657.83
2018-10-17T20:01:13.811Z,98660.92
2018-10-17T20:03:42.267Z,98657.80
2018-10-17T20:06:10.670Z,98659.05
2018-10-17T20:08:39.106Z,98665.07
2018-10-17T20:11:07.637Z,98656.80
2018-10-17T20:13:36.116Z,98663.92
2018-10-17T20:16:04.533Z,98659.58
2018-10-17T20:18:32.986Z,98659.30
2018-10-17T20:21:01.482Z,98664.78
2018-10-17T20:23:29.965Z,98668.59
2018-10-17T20:25:59.341Z,98661.09
2018-10-17T20:28:27.817Z,98657.47
2018-10-17T20:30:56.322Z,98667.37
2018-10-17T20:33:24.969Z,98669.49
2018-10-17T20:35:53.464Z,98663.56
2018-10-17T20:38:22.020Z,98668.70
2018-10-17T20:40:50.386Z,98666.02
2018-10-17T20:43:18.817Z,98671.73
2018-10-17T20:45:47.229Z,98683.22
2018-10-17T20:48:15.688Z,98681.44
2018-10-17T20:50:44.256Z,98686.81
2018-10-17T20:53:12.717Z,98693.06
2018-10-17T20:55:41.126Z,98690.42
2018-10-17T20:58:09.661Z,98697.66
2018-10-17T21:00:37.992Z,98697.78
2018-10-17T21:03:06.550Z,98698.78
2018-10-17T21:05:34.972Z,98693.42
2018-10-17T21:08:03.525Z,98701.45
2018-10-17T21:10:32.093Z,98700.30
2018-10-17T21:13:00.725Z,98703.27
2018-10-17T21:15:29.844Z,98709.25
2018-10-17T21:17:58.289Z,98700.94
2018-10-17T21:20:26.787Z,98703.27
2018-10-17T21:22:55.205Z,98700.48
2018-10-17T21:25:24.020Z,98703.31
2018-10-17T21:27:52.445Z,98702.37
2018-10-17T21:30:21.132Z,98701.19
2018-10-17T21:32:49.555Z,98701.12
2018-10-17T21:35:18.005Z,98698.83
2018-10-17T21:37:46.652Z,98697.45
2018-10-17T21:40:15.168Z,98694.31
2018-10-17T21:42:43.601Z,98695.80
2018-10-17T21:45:12.047Z,98694.48
2018-10-17T21:47:40.496Z,98699.61
2018-10-17T21:50:09.018Z,98694.75
2018-10-17T21:52:37.397Z,98691.26
2018-10-17T21:55:06.022Z,98693.58
2018-10-17T21:57:34.500Z,98695.55
2018-10-17T22:00:02.950Z,98692.30
2018-10-17T22:02:31.436Z,98685.37
2018-10-17T22:04:59.869Z,98692.79
2018-10-17T22:07:28.325Z,98692.88
2018-10-17T22:09:56.824Z,98690.48
2018-10-17T22:12:25.385Z,98687.20
2018-10-17T22:14:53.814Z,98688.30
2018-10-17T22:17:28.801Z,98681.38
2018-10-17T22:19:57.510Z,98691.23
2018-10-17T22:22:26.570Z,98690.87
2018-10-17T22:24:55.843Z,98693.20
2018-10-17T22:27:24.371Z,98693.10
2018-10-17T22:29:53.252Z,98690.65
2018-10-17T22:32:21.730Z,98683.88
2018-10-17T22:34:50.177Z,98683.39
2018-10-17T22:37:18.634Z,98687.02
2018-10-17T22:39:47.203Z,98681.58
2018-10-17T22:42:15.613Z,98681.92
2018-10-17T22:44:44.037Z,98679.64
2018-10-17T22:47:12.433Z,98671.98
2018-10-17T22:49:40.881Z,98673.67
2018-10-17T22:52:09.285Z,98679.77
2018-10-17T22:54:37.737Z,98680.02
2018-10-17T22:57:06.201Z,98678.05
2018-10-17T22:59:34.630Z,98680.39
2018-10-17T23:02:03.170Z,98681.70
2018-10-17T23:04:31.617Z,98682.69
2018-10-17T23:07:00.121Z,98682.45
2018-10-17T23:09:28.557Z,98688.05
2018-10-17T23:11:56.953Z,98686.36
2018-10-17T23:14:25.621Z,98687.91
2018-10-17T23:16:54.048Z,98684.16
2018-10-17T23:19:22.717Z,98688.06
2018-10-17T23:21:51.189Z,98691.58
2018-10-17T23:24:19.758Z,98696.16
2018-10-17T23:26:48.201Z,98692.61
2018-10-17T23:29:16.657Z,98696.87
2018-10-17T23:31:45.065Z,98685.69
2018-10-17T23:34:13.529Z,98688.25
2018-10-17T23:36:41.926Z,98686.67
2018-10-17T23:39:10.558Z,98682.87
2018-10-17T23:41:39.721Z,98689.56
2018-10-17T23:44:08.202Z,98685.30
2018-10-17T23:46:36.644Z,98681.44
2018-10-17T23:49:05.311Z,98677.29
2018-10-17T23:51:33.822Z,98677.53
2018-10-17T23:54:02.364Z,98680.70
2018-10-17T23:56:30.799Z,98677.29
2018-10-17T23:58:59.254Z,98673.77
